»·PEaware :: N127CB KSNA-L71

N127CB :: KSNA-L71

FLIGHT INFORMATION

Flight Status: Arrived
Operator: Privately registered:
United States
More flights under this callsign
Pilot: Chris B. (15698)
Aircraft: ECLIPSE 500
(EA50)
More flights by this aircraft type
Origin: KSNA John Wayne-Orange Co
United States
Destination: L71 California City Mun
United States
More flights between these airports :: More routes between these airports
Route: +MUSEL8 SLI V459 AMONT
File this flight plan on PilotEdge
Remarks:
Altitude:
(Current/Filed)
10,000ft
Speed:
(Current/Filed)
250kts
Departed: 05-Jul-17 08:24 PM
Arrived: 05-Jul-17 09:09 PM
Distance/Time
Traveled:
89nm/0:44
Distance/Time
To Go:
Arrived

Flight Plot

Page will automatically refresh every two minutes.

Flight plan parsing failed; only flown route is shown


Map Options




Map Legend


Flown Route
Filed Route
Departure Airport
Arrival Airport
Navaid (VOR, NDB)
Fix

Horizontal Profiles

Position Reports

Time Latitude Longitude Heading Altitude Ground
Speed
05-Jul-17 20:20 33.672649 -117.873007 28 59ft 0kts
05-Jul-17 20:21 33.672649 -117.873007 28 59ft 0kts
05-Jul-17 20:22 33.672649 -117.873007 28 59ft 0kts
05-Jul-17 20:23 33.672649 -117.873007 28 59ft 0kts
05-Jul-17 20:24 33.672649 -117.873007 28 59ft 0kts
05-Jul-17 20:25 33.672649 -117.873007 28 59ft 0kts
05-Jul-17 20:26 33.672824 -117.872884 31 59ft 11kts
05-Jul-17 20:27 33.676315 -117.869930 27 59ft 44kts
05-Jul-17 20:28 33.681971 -117.866093 95 59ft 12kts
05-Jul-17 20:29 33.681948 -117.865997 112 59ft 0kts
05-Jul-17 20:30 33.681240 -117.865312 203 59ft 0kts
05-Jul-17 20:31 33.668489 -117.872982 205 855ft 111kts
05-Jul-17 20:32 33.639025 -117.886185 197 2729ft 116kts
05-Jul-17 20:33 33.608099 -117.898410 196 5068ft 123kts
05-Jul-17 20:34 33.576093 -117.913555 227 7452ft 135kts
05-Jul-17 20:35 33.593028 -117.948460 338 9846ft 146kts
05-Jul-17 20:36 33.641393 -117.974497 336 10012ft 237kts
05-Jul-17 20:37 33.698519 -118.006513 336 10009ft 237kts
05-Jul-17 20:38 33.757009 -118.039811 335 9986ft 237kts
05-Jul-17 20:39 33.813614 -118.072202 335 9979ft 250kts
05-Jul-17 20:40 33.882433 -118.111680 335 9970ft 296kts
05-Jul-17 20:41 33.944971 -118.147671 335 9969ft 296kts
05-Jul-17 20:42 34.006771 -118.183301 335 9976ft 296kts
05-Jul-17 20:43 34.072778 -118.221422 335 9987ft 297kts
05-Jul-17 20:44 34.136321 -118.258174 335 9991ft 297kts
05-Jul-17 20:45 34.205668 -118.298344 335 9991ft 296kts
05-Jul-17 20:46 34.278026 -118.340349 335 9990ft 296kts
05-Jul-17 20:47 34.351367 -118.383009 335 9989ft 296kts
05-Jul-17 20:48 34.424963 -118.425903 335 9990ft 297kts
05-Jul-17 20:49 34.498992 -118.469131 335 9996ft 298kts
05-Jul-17 20:50 34.572891 -118.512372 335 9913ft 298kts
05-Jul-17 20:51 34.646486 -118.555518 335 9927ft 300kts
05-Jul-17 20:52 34.721079 -118.589941 345 9966ft 286kts
05-Jul-17 20:53 34.798075 -118.617723 345 10054ft 292kts
05-Jul-17 20:54 34.875854 -118.645572 345 10125ft 292kts
05-Jul-17 20:55 34.946929 -118.670909 343 10137ft 300kts
05-Jul-17 20:56 35.026407 -118.699378 343 10137ft 298kts
05-Jul-17 20:57 35.104956 -118.727314 343 10078ft 298kts
05-Jul-17 20:58 35.178735 -118.717398 56 9978ft 299kts
05-Jul-17 20:59 35.151905 -118.635215 141 9336ft 291kts
05-Jul-17 21:00 35.092144 -118.576503 141 9121ft 236kts
05-Jul-17 21:01 35.042108 -118.528692 152 9136ft 231kts
05-Jul-17 21:02 34.986919 -118.491493 151 9122ft 229kts
05-Jul-17 21:03 34.936523 -118.450103 111 9080ft 229kts
05-Jul-17 21:04 34.941136 -118.373416 86 9052ft 232kts
05-Jul-17 21:05 34.974221 -118.312544 47 8438ft 220kts
05-Jul-17 21:06 35.016145 -118.258725 46 7346ft 220kts
05-Jul-17 21:07 35.052482 -118.211945 44 5792ft 168kts
05-Jul-17 21:08 35.081512 -118.174590 43 5161ft 140kts
05-Jul-17 21:09 35.102297 -118.132694 57 4575ft 146kts
05-Jul-17 21:10 35.122231 -118.089830 55 3857ft 150kts
05-Jul-17 21:11 35.141877 -118.047135 55 3118ft 143kts
05-Jul-17 21:12 35.151560 -118.015582 228 2438ft 5kts
05-Jul-17 21:13 35.150150 -118.015834 91 2438ft 0kts

Navigation Log

Ident Type
Flight plan parsing failed, navigation log unavailable